KCBM

Columbus AFB Airport

Columbus, Mississippi, USA
METAR KCBM 241156Z AUTO 19006KT 10SM FEW013 20/20 A3009 RMK AO2 SLP191 70033 T01960196 10201 20185 53004 TSNO $
Observed Flight Rules
Feb-24 @ 11:56 UTC (23 minutes ago) Visual Flight Rules
Wind Visibility Clouds
190° at 6 knots 10 miles
  • Few at 1,300' AGL
Temperatures Readings
Current 20°C / 68°F
Dewpoint 20°C / 68°F
Humidity 100%
Altimeter 30.09" Hg
Pressure 1019.1 hPa
Elevation 67
METAR KCBM 241156Z AUTO 19006KT 10SM FEW013 20/20 A3009 RMK AO2 SLP191 70033 T01960196 10201 20185 53004 TSNO $
Observed Flight Rules
Feb-24 @ 11:56 UTC
(23 minutes ago)
VFR
Wind Visibility
190° at 6 knots 10 miles
Clouds
  • Few at 1,300' AGL
Temperature Dewpoint
20°C / 68°F 20°C / 68°F
Humidity Altimeter Pressure
100% 30.09" Hg 1019.1 hPa